sensor_id;sensor_type;location;lat;lon;timestamp;P1;durP1;ratioP1;P2;durP2;ratioP2
81150;SDS011;70629;-26.026;27.976;2023-07-31T00:00:01;10.88;;;6.57;;
81150;SDS011;70629;-26.026;27.976;2023-07-31T00:01:37;10.48;;;6.05;;
81150;SDS011;70629;-26.026;27.976;2023-07-31T00:03:12;11.68;;;5.85;;
81150;SDS011;70629;-26.026;27.976;2023-07-31T00:04:47;7.82;;;4.63;;
81150;SDS011;70629;-26.026;27.976;2023-07-31T00:06:23;9.55;;;4.57;;
81150;SDS011;70629;-26.026;27.976;2023-07-31T00:09:32;7.22;;;3.80;;
81150;SDS011;70629;-26.026;27.976;2023-07-31T00:11:07;11.60;;;4.53;;
81150;SDS011;70629;-26.026;27.976;2023-07-31T00:12:43;9.88;;;5.10;;
81150;SDS011;70629;-26.026;27.976;2023-07-31T00:14:19;11.00;;;5.72;;
81150;SDS011;70629;-26.026;27.976;2023-07-31T00:15:54;10.40;;;5.57;;
81150;SDS011;70629;-26.026;27.976;2023-07-31T00:17:29;10.68;;;4.95;;
81150;SDS011;70629;-26.026;27.976;2023-07-31T00:20:38;9.82;;;5.97;;
81150;SDS011;70629;-26.026;27.976;2023-07-31T00:22:13;8.65;;;4.63;;
81150;SDS011;70629;-26.026;27.976;2023-07-31T00:23:48;7.57;;;4.03;;
81150;SDS011;70629;-26.026;27.976;2023-07-31T00:25:23;6.78;;;4.25;;
81150;SDS011;70629;-26.026;27.976;2023-07-31T00:26:58;8.38;;;4.43;;
81150;SDS011;70629;-26.026;27.976;2023-07-31T00:28:33;7.47;;;4.30;;
81150;SDS011;70629;-26.026;27.976;2023-07-31T00:30:08;9.80;;;3.85;;
81150;SDS011;70629;-26.026;27.976;2023-07-31T00:31:43;9.02;;;3.78;;
81150;SDS011;70629;-26.026;27.976;2023-07-31T00:33:18;7.38;;;3.72;;
81150;SDS011;70629;-26.026;27.976;2023-07-31T00:34:53;7.47;;;4.40;;
81150;SDS011;70629;-26.026;27.976;2023-07-31T00:36:28;6.50;;;4.40;;
81150;SDS011;70629;-26.026;27.976;2023-07-31T00:39:37;6.38;;;3.33;;
81150;SDS011;70629;-26.026;27.976;2023-07-31T00:42:47;6.38;;;3.72;;
81150;SDS011;70629;-26.026;27.976;2023-07-31T00:44:22;8.25;;;4.10;;
81150;SDS011;70629;-26.026;27.976;2023-07-31T00:45:57;7.20;;;4.43;;
81150;SDS011;70629;-26.026;27.976;2023-07-31T00:47:32;6.45;;;3.83;;
81150;SDS011;70629;-26.026;27.976;2023-07-31T00:49:07;7.43;;;4.13;;
81150;SDS011;70629;-26.026;27.976;2023-07-31T00:50:45;9.60;;;4.63;;
81150;SDS011;70629;-26.026;27.976;2023-07-31T00:53:54;6.05;;;3.78;;
81150;SDS011;70629;-26.026;27.976;2023-07-31T00:55:30;8.13;;;3.70;;
81150;SDS011;70629;-26.026;27.976;2023-07-31T00:57:05;6.07;;;4.07;;
81150;SDS011;70629;-26.026;27.976;2023-07-31T00:58:42;8.40;;;4.57;;
81150;SDS011;70629;-26.026;27.976;2023-07-31T01:01:51;5.97;;;3.53;;
81150;SDS011;70629;-26.026;27.976;2023-07-31T01:03:26;10.40;;;4.57;;
81150;SDS011;70629;-26.026;27.976;2023-07-31T01:05:01;12.55;;;4.97;;
81150;SDS011;70629;-26.026;27.976;2023-07-31T01:08:44;7.72;;;3.72;;
81150;SDS011;70629;-26.026;27.976;2023-07-31T01:10:46;9.00;;;4.72;;
81150;SDS011;70629;-26.026;27.976;2023-07-31T01:12:27;8.65;;;4.80;;
81150;SDS011;70629;-26.026;27.976;2023-07-31T01:14:03;7.75;;;4.22;;
81150;SDS011;70629;-26.026;27.976;2023-07-31T08:10:46;2.97;;;0.98;;
81150;SDS011;70629;-26.026;27.976;2023-07-31T08:13:55;2.97;;;1.17;;
81150;SDS011;70629;-26.026;27.976;2023-07-31T08:17:04;5.80;;;1.30;;
81150;SDS011;70629;-26.026;27.976;2023-07-31T08:18:40;3.10;;;1.40;;
81150;SDS011;70629;-26.026;27.976;2023-07-31T08:20:16;3.30;;;1.40;;
81150;SDS011;70629;-26.026;27.976;2023-07-31T08:21:51;2.97;;;1.23;;
81150;SDS011;70629;-26.026;27.976;2023-07-31T08:23:30;3.75;;;1.05;;
81150;SDS011;70629;-26.026;27.976;2023-07-31T08:25:05;2.92;;;1.15;;
81150;SDS011;70629;-26.026;27.976;2023-07-31T08:26:40;6.45;;;1.50;;
81150;SDS011;70629;-26.026;27.976;2023-07-31T08:28:15;2.75;;;1.48;;
81150;SDS011;70629;-26.026;27.976;2023-07-31T08:29:51;3.35;;;1.33;;
81150;SDS011;70629;-26.026;27.976;2023-07-31T08:31:27;3.58;;;1.30;;
81150;SDS011;70629;-26.026;27.976;2023-07-31T08:33:03;2.70;;;1.25;;
81150;SDS011;70629;-26.026;27.976;2023-07-31T08:34:38;4.10;;;1.42;;
81150;SDS011;70629;-26.026;27.976;2023-07-31T08:36:13;3.63;;;1.23;;
81150;SDS011;70629;-26.026;27.976;2023-07-31T08:37:48;3.65;;;1.33;;
81150;SDS011;70629;-26.026;27.976;2023-07-31T08:40:57;3.75;;;1.17;;
81150;SDS011;70629;-26.026;27.976;2023-07-31T08:42:32;2.67;;;1.05;;
81150;SDS011;70629;-26.026;27.976;2023-07-31T08:44:07;6.90;;;1.60;;
81150;SDS011;70629;-26.026;27.976;2023-07-31T08:45:44;5.10;;;1.45;;
81150;SDS011;70629;-26.026;27.976;2023-07-31T08:47:19;3.10;;;1.20;;
81150;SDS011;70629;-26.026;27.976;2023-07-31T08:48:56;7.90;;;1.42;;
81150;SDS011;70629;-26.026;27.976;2023-07-31T08:50:33;2.17;;;0.98;;
81150;SDS011;70629;-26.026;27.976;2023-07-31T08:52:08;2.95;;;1.10;;
81150;SDS011;70629;-26.026;27.976;2023-07-31T08:53:44;4.10;;;1.30;;
81150;SDS011;70629;-26.026;27.976;2023-07-31T08:55:19;4.50;;;1.33;;
81150;SDS011;70629;-26.026;27.976;2023-07-31T08:57:00;8.60;;;1.45;;
81150;SDS011;70629;-26.026;27.976;2023-07-31T08:58:36;3.08;;;1.50;;
81150;SDS011;70629;-26.026;27.976;2023-07-31T09:00:13;2.65;;;0.95;;
81150;SDS011;70629;-26.026;27.976;2023-07-31T09:01:49;5.47;;;1.05;;
81150;SDS011;70629;-26.026;27.976;2023-07-31T09:03:27;4.10;;;1.05;;
81150;SDS011;70629;-26.026;27.976;2023-07-31T09:05:06;4.72;;;1.67;;
81150;SDS011;70629;-26.026;27.976;2023-07-31T09:06:42;2.95;;;1.10;;
81150;SDS011;70629;-26.026;27.976;2023-07-31T09:08:19;3.88;;;1.60;;
81150;SDS011;70629;-26.026;27.976;2023-07-31T09:09:55;5.03;;;1.33;;
81150;SDS011;70629;-26.026;27.976;2023-07-31T09:11:30;5.70;;;1.15;;
81150;SDS011;70629;-26.026;27.976;2023-07-31T09:13:05;5.35;;;1.35;;
81150;SDS011;70629;-26.026;27.976;2023-07-31T09:14:45;5.93;;;1.08;;
81150;SDS011;70629;-26.026;27.976;2023-07-31T09:16:27;3.58;;;1.08;;
81150;SDS011;70629;-26.026;27.976;2023-07-31T09:18:06;4.05;;;1.27;;
81150;SDS011;70629;-26.026;27.976;2023-07-31T09:19:42;3.55;;;1.15;;
81150;SDS011;70629;-26.026;27.976;2023-07-31T09:21:18;5.05;;;1.20;;
81150;SDS011;70629;-26.026;27.976;2023-07-31T09:22:52;4.40;;;1.05;;
81150;SDS011;70629;-26.026;27.976;2023-07-31T09:24:29;4.47;;;1.10;;
81150;SDS011;70629;-26.026;27.976;2023-07-31T09:26:05;6.80;;;1.27;;
81150;SDS011;70629;-26.026;27.976;2023-07-31T09:27:54;4.22;;;0.90;;
81150;SDS011;70629;-26.026;27.976;2023-07-31T09:29:33;5.30;;;1.40;;
81150;SDS011;70629;-26.026;27.976;2023-07-31T09:31:08;4.10;;;1.50;;
81150;SDS011;70629;-26.026;27.976;2023-07-31T09:32:44;43.90;;;16.92;;
81150;SDS011;70629;-26.026;27.976;2023-07-31T09:34:20;6.50;;;1.73;;
81150;SDS011;70629;-26.026;27.976;2023-07-31T09:36:14;4.68;;;1.48;;
81150;SDS011;70629;-26.026;27.976;2023-07-31T09:37:50;4.70;;;1.23;;
81150;SDS011;70629;-26.026;27.976;2023-07-31T09:39:29;5.40;;;1.10;;
81150;SDS011;70629;-26.026;27.976;2023-07-31T09:41:04;4.50;;;1.35;;
81150;SDS011;70629;-26.026;27.976;2023-07-31T09:42:42;10.35;;;1.67;;
81150;SDS011;70629;-26.026;27.976;2023-07-31T09:44:17;4.78;;;1.35;;
81150;SDS011;70629;-26.026;27.976;2023-07-31T09:45:55;5.07;;;1.65;;
81150;SDS011;70629;-26.026;27.976;2023-07-31T09:47:31;5.50;;;1.20;;
81150;SDS011;70629;-26.026;27.976;2023-07-31T09:50:45;4.35;;;1.10;;
81150;SDS011;70629;-26.026;27.976;2023-07-31T09:52:21;5.43;;;1.25;;
81150;SDS011;70629;-26.026;27.976;2023-07-31T09:53:56;16.80;;;1.75;;
81150;SDS011;70629;-26.026;27.976;2023-07-31T09:55:32;3.03;;;1.15;;
81150;SDS011;70629;-26.026;27.976;2023-07-31T09:57:07;4.47;;;1.30;;
81150;SDS011;70629;-26.026;27.976;2023-07-31T09:58:44;2.60;;;1.05;;
81150;SDS011;70629;-26.026;27.976;2023-07-31T10:00:19;5.07;;;1.38;;
81150;SDS011;70629;-26.026;27.976;2023-07-31T10:01:56;3.10;;;1.30;;
81150;SDS011;70629;-26.026;27.976;2023-07-31T10:03:32;4.25;;;1.20;;
81150;SDS011;70629;-26.026;27.976;2023-07-31T10:05:07;6.38;;;1.30;;
81150;SDS011;70629;-26.026;27.976;2023-07-31T10:06:43;23.08;;;3.15;;
81150;SDS011;70629;-26.026;27.976;2023-07-31T10:08:20;4.65;;;1.30;;
81150;SDS011;70629;-26.026;27.976;2023-07-31T10:09:58;3.35;;;1.30;;
81150;SDS011;70629;-26.026;27.976;2023-07-31T10:11:50;9.73;;;1.27;;
81150;SDS011;70629;-26.026;27.976;2023-07-31T10:13:30;10.00;;;1.52;;
81150;SDS011;70629;-26.026;27.976;2023-07-31T10:15:06;4.15;;;1.48;;
81150;SDS011;70629;-26.026;27.976;2023-07-31T10:16:42;10.10;;;1.80;;
81150;SDS011;70629;-26.026;27.976;2023-07-31T10:18:18;4.15;;;1.23;;
81150;SDS011;70629;-26.026;27.976;2023-07-31T10:19:54;4.60;;;1.40;;
81150;SDS011;70629;-26.026;27.976;2023-07-31T10:21:31;4.75;;;1.17;;
81150;SDS011;70629;-26.026;27.976;2023-07-31T10:23:09;5.40;;;1.60;;
81150;SDS011;70629;-26.026;27.976;2023-07-31T10:24:45;13.27;;;1.55;;
81150;SDS011;70629;-26.026;27.976;2023-07-31T10:26:20;4.18;;;1.45;;
81150;SDS011;70629;-26.026;27.976;2023-07-31T10:27:59;9.55;;;1.38;;
81150;SDS011;70629;-26.026;27.976;2023-07-31T10:29:34;3.05;;;1.10;;
81150;SDS011;70629;-26.026;27.976;2023-07-31T10:31:10;3.45;;;1.15;;
81150;SDS011;70629;-26.026;27.976;2023-07-31T10:32:45;3.30;;;1.10;;
81150;SDS011;70629;-26.026;27.976;2023-07-31T10:34:23;2.80;;;0.85;;
81150;SDS011;70629;-26.026;27.976;2023-07-31T10:37:52;2.60;;;0.80;;
81150;SDS011;70629;-26.026;27.976;2023-07-31T10:39:35;6.88;;;1.63;;
81150;SDS011;70629;-26.026;27.976;2023-07-31T10:41:12;2.67;;;1.02;;
81150;SDS011;70629;-26.026;27.976;2023-07-31T10:42:48;4.13;;;1.13;;
81150;SDS011;70629;-26.026;27.976;2023-07-31T10:44:27;3.78;;;1.23;;
81150;SDS011;70629;-26.026;27.976;2023-07-31T10:46:09;3.78;;;1.25;;
81150;SDS011;70629;-26.026;27.976;2023-07-31T10:47:46;4.50;;;0.93;;
81150;SDS011;70629;-26.026;27.976;2023-07-31T10:49:21;2.95;;;1.13;;
81150;SDS011;70629;-26.026;27.976;2023-07-31T10:50:57;3.45;;;1.17;;
81150;SDS011;70629;-26.026;27.976;2023-07-31T10:52:32;3.72;;;1.73;;
81150;SDS011;70629;-26.026;27.976;2023-07-31T10:54:10;2.63;;;1.20;;
81150;SDS011;70629;-26.026;27.976;2023-07-31T10:55:49;3.83;;;1.15;;
81150;SDS011;70629;-26.026;27.976;2023-07-31T10:57:29;6.80;;;1.27;;
81150;SDS011;70629;-26.026;27.976;2023-07-31T10:59:09;4.45;;;1.23;;
81150;SDS011;70629;-26.026;27.976;2023-07-31T11:00:46;4.93;;;1.75;;
81150;SDS011;70629;-26.026;27.976;2023-07-31T11:02:26;7.95;;;1.05;;
81150;SDS011;70629;-26.026;27.976;2023-07-31T11:04:09;6.93;;;2.65;;
81150;SDS011;70629;-26.026;27.976;2023-07-31T11:07:45;9.63;;;2.58;;
81150;SDS011;70629;-26.026;27.976;2023-07-31T11:09:21;6.60;;;2.70;;
81150;SDS011;70629;-26.026;27.976;2023-07-31T11:12:37;5.55;;;2.03;;
81150;SDS011;70629;-26.026;27.976;2023-07-31T11:14:13;10.68;;;2.75;;
81150;SDS011;70629;-26.026;27.976;2023-07-31T11:15:48;10.80;;;5.05;;
81150;SDS011;70629;-26.026;27.976;2023-07-31T11:17:24;10.85;;;4.75;;
81150;SDS011;70629;-26.026;27.976;2023-07-31T11:19:00;15.82;;;5.75;;
81150;SDS011;70629;-26.026;27.976;2023-07-31T11:20:35;7.53;;;2.50;;
81150;SDS011;70629;-26.026;27.976;2023-07-31T11:22:11;6.82;;;2.85;;
81150;SDS011;70629;-26.026;27.976;2023-07-31T11:23:51;4.50;;;1.52;;
81150;SDS011;70629;-26.026;27.976;2023-07-31T11:25:30;4.85;;;1.50;;
81150;SDS011;70629;-26.026;27.976;2023-07-31T11:27:07;7.57;;;2.40;;
81150;SDS011;70629;-26.026;27.976;2023-07-31T11:28:42;10.20;;;3.83;;
81150;SDS011;70629;-26.026;27.976;2023-07-31T11:30:20;5.25;;;1.98;;
81150;SDS011;70629;-26.026;27.976;2023-07-31T11:31:55;6.38;;;2.30;;
81150;SDS011;70629;-26.026;27.976;2023-07-31T11:33:30;12.00;;;3.15;;
81150;SDS011;70629;-26.026;27.976;2023-07-31T11:35:06;6.20;;;1.83;;
81150;SDS011;70629;-26.026;27.976;2023-07-31T11:36:52;3.72;;;1.58;;
81150;SDS011;70629;-26.026;27.976;2023-07-31T11:38:32;6.05;;;2.42;;
81150;SDS011;70629;-26.026;27.976;2023-07-31T11:40:09;5.85;;;1.30;;
81150;SDS011;70629;-26.026;27.976;2023-07-31T11:41:44;5.82;;;2.40;;
81150;SDS011;70629;-26.026;27.976;2023-07-31T11:43:20;3.78;;;0.90;;
81150;SDS011;70629;-26.026;27.976;2023-07-31T11:44:55;6.03;;;1.65;;
81150;SDS011;70629;-26.026;27.976;2023-07-31T11:46:30;4.20;;;1.02;;
81150;SDS011;70629;-26.026;27.976;2023-07-31T11:48:05;5.30;;;1.95;;
81150;SDS011;70629;-26.026;27.976;2023-07-31T11:49:41;88.28;;;26.60;;
81150;SDS011;70629;-26.026;27.976;2023-07-31T11:51:17;6.15;;;2.40;;
81150;SDS011;70629;-26.026;27.976;2023-07-31T11:52:59;4.40;;;1.25;;
81150;SDS011;70629;-26.026;27.976;2023-07-31T11:54:37;7.30;;;2.25;;
81150;SDS011;70629;-26.026;27.976;2023-07-31T11:56:13;16.65;;;6.28;;
81150;SDS011;70629;-26.026;27.976;2023-07-31T11:57:51;5.22;;;1.67;;
81150;SDS011;70629;-26.026;27.976;2023-07-31T11:59:29;4.97;;;1.58;;
81150;SDS011;70629;-26.026;27.976;2023-07-31T12:01:04;7.53;;;2.90;;
81150;SDS011;70629;-26.026;27.976;2023-07-31T12:02:40;5.60;;;1.30;;
81150;SDS011;70629;-26.026;27.976;2023-07-31T12:04:16;4.57;;;1.30;;
81150;SDS011;70629;-26.026;27.976;2023-07-31T12:05:52;3.60;;;1.50;;
81150;SDS011;70629;-26.026;27.976;2023-07-31T12:07:42;6.20;;;1.45;;
81150;SDS011;70629;-26.026;27.976;2023-07-31T12:09:18;2.90;;;1.30;;
81150;SDS011;70629;-26.026;27.976;2023-07-31T12:10:54;3.60;;;1.38;;
81150;SDS011;70629;-26.026;27.976;2023-07-31T12:12:36;7.10;;;1.60;;
81150;SDS011;70629;-26.026;27.976;2023-07-31T12:14:26;6.40;;;1.58;;
81150;SDS011;70629;-26.026;27.976;2023-07-31T12:16:04;2.97;;;1.05;;
81150;SDS011;70629;-26.026;27.976;2023-07-31T12:17:39;4.22;;;1.13;;
81150;SDS011;70629;-26.026;27.976;2023-07-31T12:19:14;3.55;;;1.00;;
81150;SDS011;70629;-26.026;27.976;2023-07-31T12:24:31;14.07;;;1.67;;
81150;SDS011;70629;-26.026;27.976;2023-07-31T12:26:10;4.28;;;1.10;;
81150;SDS011;70629;-26.026;27.976;2023-07-31T12:27:50;4.07;;;1.13;;
81150;SDS011;70629;-26.026;27.976;2023-07-31T12:29:33;2.28;;;0.80;;
81150;SDS011;70629;-26.026;27.976;2023-07-31T12:31:17;3.58;;;1.00;;
81150;SDS011;70629;-26.026;27.976;2023-07-31T12:32:55;4.18;;;1.88;;
81150;SDS011;70629;-26.026;27.976;2023-07-31T12:34:31;4.88;;;1.05;;
81150;SDS011;70629;-26.026;27.976;2023-07-31T12:36:17;2.00;;;0.75;;
81150;SDS011;70629;-26.026;27.976;2023-07-31T12:37:56;4.97;;;1.52;;
81150;SDS011;70629;-26.026;27.976;2023-07-31T12:39:35;6.70;;;1.52;;
81150;SDS011;70629;-26.026;27.976;2023-07-31T12:41:10;5.68;;;2.28;;
81150;SDS011;70629;-26.026;27.976;2023-07-31T12:42:45;9.32;;;4.32;;
81150;SDS011;70629;-26.026;27.976;2023-07-31T12:44:21;8.75;;;3.80;;
81150;SDS011;70629;-26.026;27.976;2023-07-31T12:45:56;7.40;;;4.00;;
81150;SDS011;70629;-26.026;27.976;2023-07-31T12:47:32;3.25;;;1.52;;
81150;SDS011;70629;-26.026;27.976;2023-07-31T12:49:07;7.70;;;2.03;;
81150;SDS011;70629;-26.026;27.976;2023-07-31T12:50:41;7.80;;;2.92;;
81150;SDS011;70629;-26.026;27.976;2023-07-31T12:52:17;6.43;;;2.80;;
81150;SDS011;70629;-26.026;27.976;2023-07-31T12:53:51;3.55;;;1.50;;
81150;SDS011;70629;-26.026;27.976;2023-07-31T12:55:26;5.65;;;1.25;;
81150;SDS011;70629;-26.026;27.976;2023-07-31T12:57:01;5.75;;;1.30;;
81150;SDS011;70629;-26.026;27.976;2023-07-31T12:58:36;2.75;;;1.00;;
81150;SDS011;70629;-26.026;27.976;2023-07-31T13:00:12;7.93;;;2.05;;
81150;SDS011;70629;-26.026;27.976;2023-07-31T13:01:47;4.00;;;1.05;;
81150;SDS011;70629;-26.026;27.976;2023-07-31T13:03:22;5.43;;;1.90;;
81150;SDS011;70629;-26.026;27.976;2023-07-31T13:04:58;6.32;;;2.40;;
81150;SDS011;70629;-26.026;27.976;2023-07-31T13:06:32;4.22;;;1.90;;
81150;SDS011;70629;-26.026;27.976;2023-07-31T13:08:07;5.55;;;1.83;;
81150;SDS011;70629;-26.026;27.976;2023-07-31T13:09:42;4.75;;;1.83;;
81150;SDS011;70629;-26.026;27.976;2023-07-31T13:11:17;4.72;;;2.15;;
81150;SDS011;70629;-26.026;27.976;2023-07-31T13:12:52;7.43;;;1.83;;
81150;SDS011;70629;-26.026;27.976;2023-07-31T13:14:27;2.70;;;1.45;;
81150;SDS011;70629;-26.026;27.976;2023-07-31T13:16:02;3.80;;;1.13;;
81150;SDS011;70629;-26.026;27.976;2023-07-31T13:17:37;3.75;;;1.20;;
81150;SDS011;70629;-26.026;27.976;2023-07-31T13:19:12;2.75;;;1.25;;
81150;SDS011;70629;-26.026;27.976;2023-07-31T13:20:47;2.25;;;0.93;;
81150;SDS011;70629;-26.026;27.976;2023-07-31T13:22:22;8.38;;;1.60;;
81150;SDS011;70629;-26.026;27.976;2023-07-31T13:23:58;3.40;;;1.60;;
81150;SDS011;70629;-26.026;27.976;2023-07-31T13:25:34;3.70;;;1.50;;
81150;SDS011;70629;-26.026;27.976;2023-07-31T13:27:09;4.20;;;1.48;;
81150;SDS011;70629;-26.026;27.976;2023-07-31T13:28:44;4.28;;;1.40;;
81150;SDS011;70629;-26.026;27.976;2023-07-31T13:30:19;4.70;;;1.48;;
81150;SDS011;70629;-26.026;27.976;2023-07-31T13:31:54;3.40;;;1.65;;
81150;SDS011;70629;-26.026;27.976;2023-07-31T13:33:29;16.15;;;5.28;;
81150;SDS011;70629;-26.026;27.976;2023-07-31T13:35:11;7.55;;;2.50;;
81150;SDS011;70629;-26.026;27.976;2023-07-31T13:36:46;3.80;;;1.20;;
81150;SDS011;70629;-26.026;27.976;2023-07-31T13:38:21;3.25;;;1.30;;
81150;SDS011;70629;-26.026;27.976;2023-07-31T13:39:56;2.83;;;0.73;;
81150;SDS011;70629;-26.026;27.976;2023-07-31T13:41:31;2.63;;;0.90;;
81150;SDS011;70629;-26.026;27.976;2023-07-31T13:43:06;6.28;;;1.52;;
81150;SDS011;70629;-26.026;27.976;2023-07-31T13:44:41;3.33;;;1.10;;
81150;SDS011;70629;-26.026;27.976;2023-07-31T13:46:16;5.57;;;0.98;;
81150;SDS011;70629;-26.026;27.976;2023-07-31T13:47:51;9.50;;;1.20;;
81150;SDS011;70629;-26.026;27.976;2023-07-31T13:49:27;6.55;;;2.90;;
81150;SDS011;70629;-26.026;27.976;2023-07-31T13:51:03;7.05;;;2.05;;
81150;SDS011;70629;-26.026;27.976;2023-07-31T13:52:38;4.45;;;1.33;;
81150;SDS011;70629;-26.026;27.976;2023-07-31T13:54:13;3.88;;;1.30;;
81150;SDS011;70629;-26.026;27.976;2023-07-31T13:55:51;5.85;;;1.88;;
81150;SDS011;70629;-26.026;27.976;2023-07-31T13:57:26;7.25;;;1.50;;
81150;SDS011;70629;-26.026;27.976;2023-07-31T13:59:01;10.95;;;1.58;;
81150;SDS011;70629;-26.026;27.976;2023-07-31T14:00:36;6.32;;;1.27;;
81150;SDS011;70629;-26.026;27.976;2023-07-31T14:02:11;7.10;;;2.25;;
81150;SDS011;70629;-26.026;27.976;2023-07-31T14:03:47;5.38;;;1.80;;
81150;SDS011;70629;-26.026;27.976;2023-07-31T14:05:22;4.93;;;1.30;;
81150;SDS011;70629;-26.026;27.976;2023-07-31T14:06:58;4.82;;;1.90;;
81150;SDS011;70629;-26.026;27.976;2023-07-31T14:08:33;5.82;;;1.35;;
81150;SDS011;70629;-26.026;27.976;2023-07-31T14:10:08;8.77;;;1.30;;
81150;SDS011;70629;-26.026;27.976;2023-07-31T14:11:43;10.80;;;1.92;;
81150;SDS011;70629;-26.026;27.976;2023-07-31T14:13:18;6.15;;;1.63;;
81150;SDS011;70629;-26.026;27.976;2023-07-31T14:14:53;3.38;;;1.17;;
81150;SDS011;70629;-26.026;27.976;2023-07-31T14:16:28;5.03;;;2.28;;
81150;SDS011;70629;-26.026;27.976;2023-07-31T14:18:03;4.30;;;1.30;;
81150;SDS011;70629;-26.026;27.976;2023-07-31T14:19:38;16.48;;;5.07;;
81150;SDS011;70629;-26.026;27.976;2023-07-31T14:21:14;208.52;;;82.10;;
81150;SDS011;70629;-26.026;27.976;2023-07-31T14:22:49;9.95;;;3.75;;
81150;SDS011;70629;-26.026;27.976;2023-07-31T14:24:24;3.50;;;1.60;;
81150;SDS011;70629;-26.026;27.976;2023-07-31T14:25:59;4.22;;;1.40;;
81150;SDS011;70629;-26.026;27.976;2023-07-31T14:27:34;3.88;;;1.63;;
81150;SDS011;70629;-26.026;27.976;2023-07-31T14:29:09;11.20;;;2.35;;
81150;SDS011;70629;-26.026;27.976;2023-07-31T14:30:44;5.00;;;2.15;;
81150;SDS011;70629;-26.026;27.976;2023-07-31T14:32:19;4.13;;;1.92;;
81150;SDS011;70629;-26.026;27.976;2023-07-31T14:33:55;8.18;;;1.70;;
81150;SDS011;70629;-26.026;27.976;2023-07-31T14:35:30;5.40;;;1.73;;
81150;SDS011;70629;-26.026;27.976;2023-07-31T14:37:05;9.32;;;1.90;;
81150;SDS011;70629;-26.026;27.976;2023-07-31T14:38:40;3.85;;;1.45;;
81150;SDS011;70629;-26.026;27.976;2023-07-31T14:40:15;3.42;;;1.40;;
81150;SDS011;70629;-26.026;27.976;2023-07-31T14:41:50;4.22;;;1.45;;
81150;SDS011;70629;-26.026;27.976;2023-07-31T14:43:25;3.28;;;1.30;;
81150;SDS011;70629;-26.026;27.976;2023-07-31T14:45:00;5.60;;;1.30;;
81150;SDS011;70629;-26.026;27.976;2023-07-31T14:46:35;4.82;;;1.38;;
81150;SDS011;70629;-26.026;27.976;2023-07-31T14:48:10;8.35;;;1.70;;
81150;SDS011;70629;-26.026;27.976;2023-07-31T14:49:45;4.53;;;1.52;;
81150;SDS011;70629;-26.026;27.976;2023-07-31T14:51:20;11.07;;;1.75;;
81150;SDS011;70629;-26.026;27.976;2023-07-31T14:52:55;4.25;;;1.65;;
81150;SDS011;70629;-26.026;27.976;2023-07-31T14:54:30;3.08;;;1.27;;
81150;SDS011;70629;-26.026;27.976;2023-07-31T14:56:05;5.38;;;1.70;;
81150;SDS011;70629;-26.026;27.976;2023-07-31T14:57:40;9.55;;;2.13;;
81150;SDS011;70629;-26.026;27.976;2023-07-31T14:59:16;6.03;;;2.20;;
81150;SDS011;70629;-26.026;27.976;2023-07-31T15:00:50;5.35;;;1.77;;
81150;SDS011;70629;-26.026;27.976;2023-07-31T15:02:26;4.90;;;1.33;;
81150;SDS011;70629;-26.026;27.976;2023-07-31T15:04:01;76.53;;;31.15;;
81150;SDS011;70629;-26.026;27.976;2023-07-31T15:05:37;18.52;;;9.07;;
81150;SDS011;70629;-26.026;27.976;2023-07-31T15:07:11;68.28;;;48.55;;
81150;SDS011;70629;-26.026;27.976;2023-07-31T15:08:47;261.80;;;176.07;;
81150;SDS011;70629;-26.026;27.976;2023-07-31T15:10:22;137.68;;;86.35;;
81150;SDS011;70629;-26.026;27.976;2023-07-31T15:11:57;180.48;;;120.22;;
81150;SDS011;70629;-26.026;27.976;2023-07-31T15:13:32;84.15;;;67.35;;
81150;SDS011;70629;-26.026;27.976;2023-07-31T15:15:07;18.75;;;16.17;;
81150;SDS011;70629;-26.026;27.976;2023-07-31T15:16:43;13.07;;;10.50;;
81150;SDS011;70629;-26.026;27.976;2023-07-31T15:18:18;10.48;;;3.80;;
81150;SDS011;70629;-26.026;27.976;2023-07-31T15:19:53;6.97;;;2.55;;
81150;SDS011;70629;-26.026;27.976;2023-07-31T15:21:28;5.35;;;2.65;;
81150;SDS011;70629;-26.026;27.976;2023-07-31T15:23:02;16.55;;;3.33;;
81150;SDS011;70629;-26.026;27.976;2023-07-31T15:24:37;5.63;;;3.38;;
81150;SDS011;70629;-26.026;27.976;2023-07-31T15:26:12;9.43;;;2.28;;
81150;SDS011;70629;-26.026;27.976;2023-07-31T15:27:58;8.57;;;3.45;;
81150;SDS011;70629;-26.026;27.976;2023-07-31T15:29:34;7.07;;;3.10;;
81150;SDS011;70629;-26.026;27.976;2023-07-31T15:31:11;9.48;;;4.25;;
81150;SDS011;70629;-26.026;27.976;2023-07-31T15:32:46;7.47;;;3.63;;
81150;SDS011;70629;-26.026;27.976;2023-07-31T15:34:23;8.05;;;2.83;;
81150;SDS011;70629;-26.026;27.976;2023-07-31T15:35:58;6.05;;;2.58;;
81150;SDS011;70629;-26.026;27.976;2023-07-31T15:37:33;5.07;;;2.40;;
81150;SDS011;70629;-26.026;27.976;2023-07-31T15:39:09;5.65;;;2.40;;
81150;SDS011;70629;-26.026;27.976;2023-07-31T15:40:43;8.23;;;3.65;;
81150;SDS011;70629;-26.026;27.976;2023-07-31T15:42:18;8.25;;;3.75;;
81150;SDS011;70629;-26.026;27.976;2023-07-31T15:43:53;6.80;;;3.25;;
81150;SDS011;70629;-26.026;27.976;2023-07-31T15:45:28;6.80;;;3.30;;
81150;SDS011;70629;-26.026;27.976;2023-07-31T15:47:04;6.72;;;2.78;;
81150;SDS011;70629;-26.026;27.976;2023-07-31T15:48:39;5.38;;;2.80;;
81150;SDS011;70629;-26.026;27.976;2023-07-31T15:50:14;7.75;;;2.97;;
81150;SDS011;70629;-26.026;27.976;2023-07-31T15:51:49;9.65;;;3.60;;
81150;SDS011;70629;-26.026;27.976;2023-07-31T15:53:24;5.15;;;2.60;;
81150;SDS011;70629;-26.026;27.976;2023-07-31T15:54:59;6.18;;;2.92;;
81150;SDS011;70629;-26.026;27.976;2023-07-31T15:56:34;7.05;;;2.75;;
81150;SDS011;70629;-26.026;27.976;2023-07-31T15:58:09;6.43;;;2.50;;
81150;SDS011;70629;-26.026;27.976;2023-07-31T15:59:44;4.80;;;2.33;;
81150;SDS011;70629;-26.026;27.976;2023-07-31T16:01:18;5.07;;;3.47;;
81150;SDS011;70629;-26.026;27.976;2023-07-31T16:02:54;13.25;;;5.68;;
81150;SDS011;70629;-26.026;27.976;2023-07-31T16:04:29;9.50;;;6.38;;
81150;SDS011;70629;-26.026;27.976;2023-07-31T16:06:04;9.57;;;6.07;;
81150;SDS011;70629;-26.026;27.976;2023-07-31T16:07:39;7.65;;;5.72;;
81150;SDS011;70629;-26.026;27.976;2023-07-31T16:09:14;8.52;;;5.25;;
81150;SDS011;70629;-26.026;27.976;2023-07-31T16:10:48;9.52;;;4.95;;
81150;SDS011;70629;-26.026;27.976;2023-07-31T16:12:23;7.10;;;4.80;;
81150;SDS011;70629;-26.026;27.976;2023-07-31T16:13:58;9.15;;;4.28;;
81150;SDS011;70629;-26.026;27.976;2023-07-31T16:15:36;8.18;;;4.40;;
81150;SDS011;70629;-26.026;27.976;2023-07-31T16:17:11;8.18;;;4.22;;
81150;SDS011;70629;-26.026;27.976;2023-07-31T16:18:46;17.73;;;5.03;;
81150;SDS011;70629;-26.026;27.976;2023-07-31T16:20:21;9.35;;;5.32;;
81150;SDS011;70629;-26.026;27.976;2023-07-31T16:21:56;10.65;;;4.90;;
81150;SDS011;70629;-26.026;27.976;2023-07-31T16:23:32;9.45;;;5.78;;
81150;SDS011;70629;-26.026;27.976;2023-07-31T16:26:41;8.90;;;5.22;;
81150;SDS011;70629;-26.026;27.976;2023-07-31T16:28:16;13.25;;;5.32;;
81150;SDS011;70629;-26.026;27.976;2023-07-31T16:29:51;13.32;;;6.75;;
81150;SDS011;70629;-26.026;27.976;2023-07-31T16:31:26;11.77;;;6.18;;
81150;SDS011;70629;-26.026;27.976;2023-07-31T16:33:19;12.95;;;6.15;;
81150;SDS011;70629;-26.026;27.976;2023-07-31T16:34:54;12.15;;;5.32;;
81150;SDS011;70629;-26.026;27.976;2023-07-31T16:36:29;10.15;;;5.63;;
81150;SDS011;70629;-26.026;27.976;2023-07-31T16:38:04;10.38;;;6.72;;
81150;SDS011;70629;-26.026;27.976;2023-07-31T16:41:14;12.13;;;7.25;;
81150;SDS011;70629;-26.026;27.976;2023-07-31T16:42:49;10.32;;;6.68;;
81150;SDS011;70629;-26.026;27.976;2023-07-31T16:44:25;12.98;;;7.13;;
81150;SDS011;70629;-26.026;27.976;2023-07-31T16:47:34;17.38;;;7.53;;